Time;durP1;ratioP1;P1;durP2;ratioP2;P2;SDS_P1;SDS_P2;PMS_P1;PMS_P2;Temp;Humidity;BMP_temperature;BMP_pressure;BME280_temperature;BME280_humidity;BME280_pressure;Samples;Min_cycle;Max_cycle;Signal;HPM_P1;HPM_P2
2022/06/13 00:01:11;;;;;;;7.57;4.00;;;;;;;19.48;53.79;99844.06;6194947;23;20231;-75
2022/06/13 00:03:39;;;;;;;9.57;3.57;;;;;;;19.49;54.41;99848.41;6192991;23;20231;-74
2022/06/13 00:06:06;;;;;;;7.87;4.03;;;;;;;19.48;55.36;99845.94;6194299;23;20279;-74
2022/06/13 00:08:32;;;;;;;10.00;4.07;;;;;;;19.50;55.40;99849.22;6187915;23;20323;-74
2022/06/13 00:10:59;;;;;;;6.87;3.97;;;;;;;19.38;55.80;99846.41;6193948;23;20267;-74
2022/06/13 00:13:26;;;;;;;9.27;3.90;;;;;;;19.32;56.31;99837.31;6191762;23;20260;-73
2022/06/13 00:15:52;;;;;;;10.53;4.07;;;;;;;19.37;56.67;99845.59;6193368;23;20201;-75
2022/06/13 00:18:19;;;;;;;7.60;3.97;;;;;;;19.28;57.45;99851.47;6166693;23;20555;-75
2022/06/13 00:20:45;;;;;;;8.73;3.73;;;;;;;19.11;58.55;99843.06;6194596;23;20236;-75
2022/06/13 00:23:12;;;;;;;9.30;4.30;;;;;;;18.99;58.69;99848.28;6194318;23;21031;-75
2022/06/13 00:25:39;;;;;;;9.50;4.10;;;;;;;18.76;59.22;99852.31;6186587;23;20527;-74
2022/06/13 00:28:06;;;;;;;7.77;4.40;;;;;;;18.60;59.58;99855.44;6192805;23;20641;-73
2022/06/13 00:30:32;;;;;;;7.67;3.60;;;;;;;18.51;60.33;99857.53;6192990;23;20225;-76
2022/06/13 00:32:59;;;;;;;10.87;3.83;;;;;;;18.47;60.44;99861.72;6189792;23;20292;-75
2022/06/13 00:35:25;;;;;;;9.03;4.23;;;;;;;18.41;60.83;99867.94;6193883;23;20670;-73
2022/06/13 00:37:52;;;;;;;8.63;4.20;;;;;;;18.43;61.51;99884.72;6192837;23;20202;-75
2022/06/13 00:40:19;;;;;;;9.37;4.50;;;;;;;18.41;62.93;99913.72;6194536;23;20218;-74
2022/06/13 00:42:46;;;;;;;9.33;4.87;;;;;;;18.02;66.03;99931.53;6191718;23;20209;-74
2022/06/13 00:45:24;;;;;;;7.70;4.60;;;;;;;17.71;69.42;99932.09;6192815;23;20201;-73
2022/06/13 00:47:53;;;;;;;12.27;5.00;;;;;;;17.72;71.59;99952.59;6194331;23;20657;-76
2022/06/13 00:50:27;;;;;;;22.10;5.93;;;;;;;17.29;80.49;99952.88;6190216;23;20221;-74
2022/06/13 00:53:12;;;;;;;26.47;7.07;;;;;;;16.56;87.18;99933.63;6193310;23;20268;-73
2022/06/13 00:55:43;;;;;;;19.77;7.23;;;;;;;16.33;90.86;99945.44;6192646;23;20820;-72
2022/06/13 00:58:11;;;;;;;21.93;7.33;;;;;;;16.19;95.03;99949.88;6191973;23;20237;-75
2022/06/13 01:00:39;;;;;;;18.37;7.27;;;;;;;15.98;96.74;99942.66;6191713;23;20711;-74
2022/06/13 01:03:06;;;;;;;15.97;7.03;;;;;;;15.98;97.33;99947.22;6190294;23;20582;-73
2022/06/13 01:05:41;;;;;;;14.43;6.80;;;;;;;15.83;100.00;99940.06;6191718;23;20232;-75
2022/06/13 01:08:09;;;;;;;15.67;6.67;;;;;;;15.73;100.00;99914.56;6189461;23;20217;-77
2022/06/13 01:13:38;;;;;;;20.23;6.73;;;;;;;15.56;100.00;99927.34;5703776;23;20356;-74
2022/06/13 01:16:17;;;;;;;17.77;7.27;;;;;;;15.49;100.00;99916.56;5108903;23;20199;-73
2022/06/13 01:19:02;;;;;;;19.20;7.33;;;;;;;15.39;100.00;99905.31;5095893;23;20203;-74
2022/06/13 01:22:13;;;;;;;18.00;7.90;;;;;;;15.15;100.00;99899.28;5080720;23;20596;-74
2022/06/13 01:24:42;;;;;;;14.23;7.03;;;;;;;15.13;100.00;99890.59;5035748;23;20204;-73
2022/06/13 01:27:44;;;;;;;22.77;7.90;;;;;;;15.11;100.00;99884.56;5088093;23;20233;-74
2022/06/13 01:30:22;;;;;;;15.73;7.43;;;;;;;15.08;100.00;99876.94;5075186;23;20206;-74
2022/06/13 01:33:26;;;;;;;13.70;6.77;;;;;;;15.10;100.00;99869.53;5094276;23;20639;-74
2022/06/13 01:36:30;;;;;;;21.87;8.17;;;;;;;15.05;100.00;99855.84;5112316;23;20246;-73
2022/06/13 01:39:21;;;;;;;20.07;8.33;;;;;;;15.13;100.00;99846.88;5112022;23;20327;-72
2022/06/13 01:42:01;;;;;;;17.33;7.20;;;;;;;15.11;100.00;99843.56;5122795;23;20286;-77
2022/06/13 01:44:35;;;;;;;19.33;7.17;;;;;;;15.06;100.00;99844.13;5082088;23;20209;-73
2022/06/13 01:47:09;;;;;;;15.17;6.73;;;;;;;15.10;100.00;99842.72;5087633;23;20316;-74
2022/06/13 01:49:49;;;;;;;17.07;7.03;;;;;;;15.04;100.00;99831.94;5091941;23;23427;-73
2022/06/13 01:52:37;;;;;;;18.70;6.83;;;;;;;15.06;100.00;99838.75;5097475;23;20945;-74
2022/06/13 01:55:24;;;;;;;11.90;6.63;;;;;;;15.14;100.00;99832.44;5074614;23;20221;-74
2022/06/13 01:58:03;;;;;;;16.97;6.47;;;;;;;15.09;100.00;99827.66;5089769;23;20225;-73
2022/06/13 02:00:32;;;;;;;15.40;6.40;;;;;;;15.13;100.00;99826.25;5094157;23;20207;-75
2022/06/13 02:03:16;;;;;;;13.13;5.67;;;;;;;15.15;100.00;99821.53;5078708;23;20537;-76
2022/06/13 02:06:09;;;;;;;12.47;5.57;;;;;;;15.15;100.00;99818.03;5086021;23;20272;-74
2022/06/13 02:08:50;;;;;;;14.50;5.67;;;;;;;15.07;100.00;99813.59;5114293;23;20207;-73
2022/06/13 02:11:23;;;;;;;17.03;6.33;;;;;;;15.08;100.00;99804.56;5059969;23;20289;-71
2022/06/13 02:14:10;;;;;;;16.60;5.27;;;;;;;15.09;100.00;99808.91;5111904;23;20213;-43
2022/06/13 02:16:48;;;;;;;17.37;6.10;;;;;;;15.08;100.00;99801.88;5107301;23;20203;-74
2022/06/13 02:19:40;;;;;;;16.43;6.13;;;;;;;14.98;100.00;99807.56;5085910;23;22568;-74
2022/06/13 02:22:10;;;;;;;14.03;5.60;;;;;;;14.97;100.00;99807.75;5114366;23;20523;-75
2022/06/13 02:24:40;;;;;;;13.50;5.60;;;;;;;14.98;100.00;99801.34;5097601;23;20198;-76
2022/06/13 02:27:09;;;;;;;16.77;6.00;;;;;;;15.03;100.00;99785.56;5109969;23;21618;-75
2022/06/13 02:29:41;;;;;;;12.37;5.57;;;;;;;14.99;100.00;99781.59;5095606;23;20206;-74
2022/06/13 02:32:12;;;;;;;14.37;5.47;;;;;;;15.05;100.00;99779.97;5082055;23;20243;-75
2022/06/13 02:35:00;;;;;;;12.07;5.47;;;;;;;15.03;100.00;99788.22;5117364;23;21056;-78
2022/06/13 02:37:35;;;;;;;13.20;5.70;;;;;;;15.02;100.00;99788.41;5114129;23;21982;-76
2022/06/13 02:40:12;;;;;;;14.83;5.23;;;;;;;15.00;100.00;99785.91;5174808;23;20199;-75
2022/06/13 02:42:58;;;;;;;15.13;5.77;;;;;;;15.01;100.00;99782.22;5121693;23;20236;-75
2022/06/13 02:45:48;;;;;;;10.70;5.53;;;;;;;14.99;100.00;99770.88;5150649;23;20507;-73
2022/06/13 02:48:34;;;;;;;14.83;5.67;;;;;;;14.95;100.00;99772.25;5147218;23;20392;-75
2022/06/13 02:51:21;;;;;;;14.13;5.57;;;;;;;14.98;100.00;99759.34;5161523;23;21669;-76
2022/06/13 02:54:16;;;;;;;14.17;5.53;;;;;;;15.04;100.00;99756.91;5114153;23;22286;-73
2022/06/13 02:57:25;;;;;;;15.13;5.70;;;;;;;14.99;100.00;99760.16;5220130;23;20209;-75
2022/06/13 03:00:11;;;;;;;17.57;6.33;;;;;;;14.94;100.00;99759.91;5183055;23;20210;-76
2022/06/13 03:02:51;;;;;;;12.03;5.23;;;;;;;14.94;100.00;99752.69;5203918;23;20207;-77
2022/06/13 03:05:43;;;;;;;11.43;5.37;;;;;;;15.04;100.00;99754.22;5182498;23;20203;-74
2022/06/13 03:08:32;;;;;;;16.17;6.07;;;;;;;15.05;100.00;99754.00;5163494;23;22444;-74
2022/06/13 03:11:07;;;;;;;15.90;5.93;;;;;;;15.03;100.00;99750.72;5176416;23;20204;-75
2022/06/13 03:13:40;;;;;;;17.53;5.50;;;;;;;15.15;100.00;99757.22;5129649;23;20221;-75
2022/06/13 03:16:14;;;;;;;12.07;5.67;;;;;;;15.22;100.00;99756.44;5165580;23;24997;-74
2022/06/13 03:18:48;;;;;;;16.00;5.57;;;;;;;15.32;100.00;99755.09;5207377;23;20489;-75
2022/06/13 03:21:27;;;;;;;14.73;6.63;;;;;;;15.20;100.00;99756.66;5166881;23;20270;-75
2022/06/13 03:24:01;;;;;;;19.13;6.53;;;;;;;15.16;100.00;99755.38;5132996;23;20208;-74
2022/06/13 03:26:34;;;;;;;15.47;6.80;;;;;;;15.11;100.00;99753.25;5161924;23;20207;-75
2022/06/13 03:29:17;;;;;;;15.07;6.93;;;;;;;15.12;100.00;99749.53;5173830;23;20305;-77
2022/06/13 03:31:48;;;;;;;15.17;6.60;;;;;;;15.18;100.00;99754.16;5181525;23;20236;-75
2022/06/13 03:34:20;;;;;;;14.10;5.93;;;;;;;15.18;100.00;99743.44;5145106;23;20207;-74
2022/06/13 03:36:52;;;;;;;14.97;6.10;;;;;;;15.19;100.00;99747.78;5174330;23;20512;-74
2022/06/13 03:39:26;;;;;;;15.83;6.43;;;;;;;15.25;100.00;99753.41;5142540;23;20206;-74
2022/06/13 03:42:09;;;;;;;15.17;6.27;;;;;;;15.43;100.00;99748.41;5129280;23;22946;-76
2022/06/13 03:44:51;;;;;;;13.43;6.50;;;;;;;15.55;100.00;99749.53;5174422;23;21994;-74
2022/06/13 03:47:22;;;;;;;13.20;5.70;;;;;;;15.63;100.00;99746.69;5113460;23;20202;-75
2022/06/13 03:50:08;;;;;;;11.43;5.30;;;;;;;15.84;100.00;99755.75;5136872;23;23703;-74
2022/06/13 03:52:36;;;;;;;11.87;5.60;;;;;;;16.03;100.00;99768.47;5160076;23;20750;-75
2022/06/13 03:55:30;;;;;;;15.17;5.87;;;;;;;16.17;100.00;99780.09;5127840;23;24989;-75
2022/06/13 03:58:03;;;;;;;11.57;5.37;;;;;;;16.28;100.00;99784.09;5134697;23;22963;-76
2022/06/13 04:00:38;;;;;;;15.97;5.20;;;;;;;16.33;100.00;99795.06;5130361;23;22105;-75
2022/06/13 04:03:08;;;;;;;16.50;5.97;;;;;;;16.35;100.00;99803.75;5121812;23;21797;-77
2022/06/13 04:05:57;;;;;;;17.93;6.67;;;;;;;16.26;100.00;99807.63;5147487;23;20294;-76
2022/06/13 04:08:26;;;;;;;14.47;6.13;;;;;;;16.35;100.00;99811.81;5144775;23;20758;-74
2022/06/13 04:11:09;;;;;;;13.57;6.13;;;;;;;16.41;100.00;99829.84;5125453;23;20971;-75
2022/06/13 04:14:17;;;;;;;13.03;5.93;;;;;;;16.23;100.00;99819.59;5114858;23;21416;-75
2022/06/13 04:16:58;;;;;;;14.33;6.50;;;;;;;16.11;100.00;99807.75;5119963;23;20603;-76
2022/06/13 04:19:34;;;;;;;12.47;5.73;;;;;;;16.26;100.00;99804.94;5098366;23;22185;-76
2022/06/13 04:22:26;;;;;;;13.73;6.60;;;;;;;16.23;100.00;99808.84;5086678;23;21343;-74
2022/06/13 04:25:01;;;;;;;16.60;7.00;;;;;;;16.36;100.00;99810.78;5142612;23;20208;-74
2022/06/13 04:27:46;;;;;;;20.03;7.33;;;;;;;16.36;100.00;99816.16;5140305;23;21991;-73
2022/06/13 04:30:16;;;;;;;15.40;6.70;;;;;;;16.36;100.00;99815.31;5147803;23;20210;-75
2022/06/13 04:32:50;;;;;;;14.97;7.90;;;;;;;16.25;100.00;99800.63;5116059;23;20388;-76
2022/06/13 04:35:18;;;;;;;19.23;7.60;;;;;;;16.27;100.00;99801.22;5115180;23;20493;-74
2022/06/13 04:37:46;;;;;;;15.10;7.40;;;;;;;16.30;100.00;99800.84;5103061;23;21623;-74
2022/06/13 04:40:20;;;;;;;15.60;8.40;;;;;;;16.39;100.00;99794.28;5070003;23;20328;-74
2022/06/13 04:42:48;;;;;;;15.90;7.10;;;;;;;16.51;100.00;99780.31;5123260;23;20214;-74
2022/06/13 04:45:22;;;;;;;13.70;7.03;;;;;;;16.85;100.00;99782.91;5086414;23;20206;-74
2022/06/13 04:47:50;;;;;;;13.50;6.73;;;;;;;16.99;100.00;99788.34;5081829;23;25973;-74
2022/06/13 04:50:21;;;;;;;13.17;7.00;;;;;;;17.14;100.00;99772.03;5110079;23;20218;-75
2022/06/13 04:52:50;;;;;;;11.17;6.43;;;;;;;16.93;100.00;99778.41;5139651;23;20287;-73
2022/06/13 04:55:27;;;;;;;18.63;6.80;;;;;;;17.26;100.00;99773.94;5131076;23;20397;-75
2022/06/13 04:57:54;;;;;;;13.07;6.70;;;;;;;17.39;99.72;99774.97;5136938;23;20206;-75
2022/06/13 05:00:21;;;;;;;14.97;7.23;;;;;;;17.25;99.22;99774.94;5121685;23;20199;-74
2022/06/13 05:02:51;;;;;;;12.50;6.87;;;;;;;17.52;97.25;99783.06;5108917;23;20198;-76
2022/06/13 05:05:43;;;;;;;13.43;7.20;;;;;;;17.44;96.07;99778.72;5184114;22;20849;-76
2022/06/13 05:08:40;;;;;;;18.90;8.00;;;;;;;17.57;98.77;99769.00;5121429;23;20207;-75
2022/06/13 05:11:19;;;;;;;17.37;7.73;;;;;;;17.61;94.05;99776.44;5128729;23;20607;-76
2022/06/13 05:13:47;;;;;;;14.47;7.53;;;;;;;17.82;91.00;99766.53;5127318;23;21659;-75
2022/06/13 05:16:42;;;;;;;16.43;8.27;;;;;;;17.99;88.62;99765.03;5132060;23;20203;-76
2022/06/13 05:19:50;;;;;;;13.83;7.50;;;;;;;18.11;87.96;99763.34;5118161;23;21821;-76
2022/06/13 05:22:41;;;;;;;14.87;8.23;;;;;;;18.20;86.22;99773.91;5129137;23;20203;-76
2022/06/13 05:25:12;;;;;;;15.40;8.60;;;;;;;18.18;87.12;99766.03;5126100;23;20213;-75
2022/06/13 05:27:39;;;;;;;17.93;10.07;;;;;;;18.11;88.18;99770.59;5105446;23;20203;-76
2022/06/13 05:30:06;;;;;;;17.43;9.50;;;;;;;18.10;88.23;99759.03;5124091;23;20212;-77
2022/06/13 05:32:33;;;;;;;22.53;9.03;;;;;;;18.14;88.32;99757.56;5078903;23;20217;-75
2022/06/13 05:35:01;;;;;;;15.87;8.70;;;;;;;18.22;88.00;99756.50;5114527;23;21491;-75
2022/06/13 05:37:28;;;;;;;15.13;9.00;;;;;;;18.06;88.47;99757.78;5108128;23;20233;-76
2022/06/13 05:39:56;;;;;;;20.30;11.97;;;;;;;17.99;89.78;99756.16;5128993;23;20399;-75
2022/06/13 05:42:26;;;;;;;15.80;9.87;;;;;;;17.97;90.02;99753.66;5128173;23;23929;-67
2022/06/13 05:44:53;;;;;;;19.03;10.77;;;;;;;18.03;90.41;99752.81;5087298;23;21182;-69
2022/06/13 05:47:20;;;;;;;19.20;10.40;;;;;;;17.97;90.43;99748.28;5090353;23;24035;-68
2022/06/13 05:49:47;;;;;;;21.07;11.23;;;;;;;17.89;91.08;99753.88;5116773;22;20203;-68
2022/06/13 05:52:14;;;;;;;19.90;11.10;;;;;;;17.85;91.63;99744.56;5099728;23;22926;-68
2022/06/13 05:54:40;;;;;;;21.00;11.00;;;;;;;17.86;91.65;99748.91;5106063;23;20212;-68
2022/06/13 05:57:12;;;;;;;17.13;10.80;;;;;;;17.78;92.32;99746.41;5078104;23;20261;-68
2022/06/13 05:59:39;;;;;;;20.90;11.57;;;;;;;17.70;92.04;99744.78;5149484;23;20203;-55
2022/06/13 06:02:09;;;;;;;18.60;11.23;;;;;;;17.75;92.35;99746.81;5101321;23;20227;-55
2022/06/13 06:04:36;;;;;;;18.77;10.40;;;;;;;17.84;92.65;99742.91;5097043;23;20203;-69
2022/06/13 06:07:03;;;;;;;27.20;11.10;;;;;;;17.88;92.57;99746.84;5076992;23;20307;-67
2022/06/13 06:09:29;;;;;;;16.23;10.20;;;;;;;17.89;91.90;99740.44;5087622;23;20211;-70
2022/06/13 06:11:56;;;;;;;24.87;11.40;;;;;;;17.96;91.42;99735.84;5102076;23;20824;-73
2022/06/13 06:14:23;;;;;;;18.83;12.20;;;;;;;17.99;91.25;99740.81;5099299;23;20257;-68
2022/06/13 06:16:49;;;;;;;22.50;10.70;;;;;;;18.01;90.99;99724.47;5084754;23;21869;-69
2022/06/13 06:19:16;;;;;;;20.20;10.90;;;;;;;17.97;90.87;99724.03;5059581;23;20471;-72
2022/06/13 06:21:42;;;;;;;24.60;10.83;;;;;;;18.10;90.51;99724.00;5114180;23;20207;-73
2022/06/13 06:24:09;;;;;;;19.37;10.80;;;;;;;18.11;90.20;99717.56;5063304;23;25815;-71
2022/06/13 06:26:36;;;;;;;19.13;11.07;;;;;;;18.14;90.18;99710.94;5110239;23;20207;-69
2022/06/13 06:29:03;;;;;;;17.87;10.37;;;;;;;18.25;89.79;99706.78;5091182;23;20250;-70
2022/06/13 06:31:29;;;;;;;15.97;9.93;;;;;;;18.45;88.96;99712.06;5077886;23;20211;-70
2022/06/13 06:33:56;;;;;;;18.20;10.03;;;;;;;18.59;87.59;99705.59;5136062;23;20899;-69
2022/06/13 06:36:23;;;;;;;18.40;10.43;;;;;;;18.77;85.86;99705.69;5126365;23;23310;-70
2022/06/13 06:38:50;;;;;;;14.23;9.00;;;;;;;18.91;84.83;99701.06;5120553;23;20230;-71
2022/06/13 06:41:16;;;;;;;15.27;9.57;;;;;;;19.06;82.99;99698.06;5123324;23;20630;-69
2022/06/13 06:43:43;;;;;;;18.03;10.03;;;;;;;19.16;82.75;99700.28;5107181;23;21619;-72
2022/06/13 06:46:10;;;;;;;16.07;8.70;;;;;;;19.30;81.59;99701.81;5164182;23;21225;-67
2022/06/13 06:48:37;;;;;;;23.57;9.27;;;;;;;19.52;80.13;99701.41;5127337;23;20210;-70
2022/06/13 06:51:07;;;;;;;20.63;8.10;;;;;;;19.66;79.20;99700.25;5148901;22;22133;-71
2022/06/13 07:01:55;;;;;;;16.10;7.57;;;;;;;21.04;71.46;99690.66;5163150;23;20609;-71
2022/06/13 07:04:21;;;;;;;17.93;7.07;;;;;;;21.03;71.43;99697.16;5171083;23;20269;-72
2022/06/13 07:06:48;;;;;;;14.93;6.63;;;;;;;21.03;70.75;99686.31;5096947;23;20938;-68
2022/06/13 07:09:15;;;;;;;22.53;6.73;;;;;;;20.91;71.35;99682.78;5154722;23;21699;-70
2022/06/13 07:11:54;;;;;;;14.67;6.50;;;;;;;21.11;70.76;99689.75;5143846;23;20250;-70
2022/06/13 07:14:32;;;;;;;8.53;4.60;;;;;;;21.25;68.47;99693.88;5105182;23;20215;-71
2022/06/13 07:17:01;;;;;;;11.87;4.50;;;;;;;21.35;67.10;99688.72;5183353;23;20494;-68
2022/06/13 07:19:31;;;;;;;11.87;5.10;;;;;;;21.42;67.38;99688.63;5163659;23;24954;-67
2022/06/13 07:21:59;;;;;;;9.87;5.30;;;;;;;21.40;66.96;99694.31;5178200;23;20672;-67
2022/06/13 07:24:27;;;;;;;12.23;4.87;;;;;;;21.59;66.11;99694.19;5172645;23;20222;-71
2022/06/13 07:26:55;;;;;;;16.93;5.40;;;;;;;21.56;65.42;99697.34;5091841;23;20998;-68
2022/06/13 07:29:22;;;;;;;10.00;5.20;;;;;;;21.69;65.71;99689.00;5102577;23;20595;-69
2022/06/13 07:32:04;;;;;;;9.67;4.43;;;;;;;21.55;65.16;99699.25;5089731;23;20459;-70
2022/06/13 07:34:33;;;;;;;9.33;4.33;;;;;;;21.37;65.64;99693.91;5090855;23;21805;-70
2022/06/13 07:37:01;;;;;;;10.33;4.13;;;;;;;21.35;65.54;99693.31;5088107;23;20199;-67
2022/06/13 07:39:28;;;;;;;7.70;4.20;;;;;;;21.43;64.77;99701.13;5126299;23;20313;-70
2022/06/13 07:41:55;;;;;;;15.00;4.40;;;;;;;21.32;64.25;99693.78;5172944;23;21722;-71
2022/06/13 07:44:26;;;;;;;12.23;3.50;;;;;;;21.42;62.85;99700.31;5128550;23;21814;-71
2022/06/13 07:46:53;;;;;;;10.93;3.70;;;;;;;21.53;62.96;99697.84;5113190;23;25358;-70
2022/06/13 07:49:20;;;;;;;7.23;3.70;;;;;;;21.59;62.98;99703.13;5087520;23;25233;-70
2022/06/13 07:51:47;;;;;;;13.93;3.20;;;;;;;21.55;62.10;99695.72;5101241;23;20248;-71
2022/06/13 07:54:14;;;;;;;6.97;3.50;;;;;;;21.67;62.22;99696.53;5099855;23;20372;-71
2022/06/13 07:56:42;;;;;;;9.50;3.53;;;;;;;21.86;61.66;99683.69;5080619;23;20216;-69
2022/06/13 07:59:19;;;;;;;13.97;3.70;;;;;;;21.90;61.77;99693.81;5100608;23;20207;-68
2022/06/13 08:01:46;;;;;;;10.23;3.00;;;;;;;21.99;60.10;99694.28;5112162;23;21708;-73
2022/06/13 08:04:12;;;;;;;11.20;3.10;;;;;;;22.05;60.14;99687.06;5086554;23;20209;-70
2022/06/13 08:06:42;;;;;;;6.63;3.10;;;;;;;21.90;60.20;99685.69;5109761;23;20286;-70
2022/06/13 08:09:10;;;;;;;7.53;3.10;;;;;;;21.63;61.56;99679.94;5102528;23;20731;-74
2022/06/13 08:11:42;;;;;;;9.90;4.97;;;;;;;21.63;61.48;99687.22;5085065;23;20207;-70
2022/06/13 08:14:10;;;;;;;14.10;2.77;;;;;;;21.68;61.90;99695.47;5108974;23;20219;-72
2022/06/13 08:16:36;;;;;;;7.23;2.67;;;;;;;21.75;61.76;99692.63;5099651;23;20242;-73
2022/06/13 08:19:04;;;;;;;7.80;3.23;;;;;;;21.87;61.88;99677.22;5104701;22;20207;-70
2022/06/13 08:21:33;;;;;;;8.53;2.77;;;;;;;21.96;62.06;99677.66;5091856;23;22018;-52
2022/06/13 08:23:59;;;;;;;8.87;2.73;;;;;;;21.87;62.62;99664.50;5103418;23;20228;-50
2022/06/13 08:26:36;;;;;;;7.47;2.90;;;;;;;21.82;63.32;99650.00;5097359;23;23429;-46
2022/06/13 08:29:03;;;;;;;6.50;2.43;;;;;;;21.97;59.70;99666.59;5104234;23;20250;-50
2022/06/13 08:31:31;;;;;;;8.23;2.23;;;;;;;21.96;59.12;99654.13;5090699;22;20204;-48
2022/06/13 08:33:58;;;;;;;10.80;5.03;;;;;;;21.96;59.51;99650.56;5096737;23;20830;-52
2022/06/13 08:36:24;;;;;;;8.30;2.50;;;;;;;21.89;59.33;99653.41;5082299;23;20986;-50
2022/06/13 08:38:51;;;;;;;4.87;2.17;;;;;;;21.70;58.64;99648.16;5093512;23;20204;-53
2022/06/13 08:41:44;;;;;;;10.80;2.23;;;;;;;21.45;59.67;99648.41;5099570;23;21010;-54
2022/06/13 08:44:14;;;;;;;5.10;2.13;;;;;;;21.37;60.34;99651.41;5077992;23;20214;-49
2022/06/13 08:47:12;;;;;;;9.33;2.67;;;;;;;21.25;61.97;99653.28;5099948;23;20204;-50
2022/06/13 08:49:42;;;;;;;5.60;2.83;;;;;;;21.26;62.91;99663.06;5097366;23;20203;-49
2022/06/13 08:52:24;;;;;;;7.97;2.93;;;;;;;21.29;63.39;99654.47;5081336;23;20215;-49
2022/06/13 08:55:11;;;;;;;7.73;3.00;;;;;;;21.31;64.64;99662.38;5082916;23;20207;-48
2022/06/13 08:57:43;;;;;;;9.10;4.20;;;;;;;21.24;65.34;99659.78;5109012;23;20211;-50
2022/06/13 09:00:17;;;;;;;9.33;3.30;;;;;;;21.23;65.83;99666.22;5086310;22;20282;-48
2022/06/13 09:02:44;;;;;;;10.43;4.10;;;;;;;21.11;66.58;99662.69;5083271;22;22541;-46
2022/06/13 09:05:35;;;;;;;5.50;3.30;;;;;;;21.21;66.43;99665.63;5092039;23;20597;-51
2022/06/13 09:08:25;;;;;;;6.53;2.97;;;;;;;21.17;66.11;99669.88;5087752;23;20215;-52
2022/06/13 09:10:59;;;;;;;11.13;3.50;;;;;;;21.12;66.94;99683.28;5064697;23;20210;-48
2022/06/13 09:13:39;;;;;;;11.27;3.87;;;;;;;21.15;67.75;99688.22;5110524;23;20203;-51
2022/06/13 09:16:13;;;;;;;7.80;3.27;;;;;;;21.12;67.76;99697.66;5093388;23;21202;-49
2022/06/13 09:18:48;;;;;;;7.40;3.27;;;;;;;21.17;67.79;99694.25;5097476;23;20203;-51
2022/06/13 09:21:55;;;;;;;9.13;2.93;;;;;;;21.14;67.39;99703.66;5094639;23;23557;-52
2022/06/13 09:24:32;;;;;;;7.87;3.30;;;;;;;20.81;68.24;99693.31;5061519;23;21806;-49
2022/06/13 09:27:06;;;;;;;6.33;3.20;;;;;;;20.74;69.48;99700.69;5105111;23;20209;-52
2022/06/13 09:29:50;;;;;;;7.87;3.40;;;;;;;20.75;68.57;99699.66;5080873;23;20203;-48
2022/06/13 09:32:22;;;;;;;6.23;3.60;;;;;;;20.72;68.96;99697.38;5081392;23;21276;-51
2022/06/13 09:34:52;;;;;;;5.33;3.63;;;;;;;20.67;69.53;99700.78;5087604;23;22077;-48
2022/06/13 09:37:32;;;;;;;6.80;3.83;;;;;;;20.61;70.66;99707.13;5096932;23;20210;-48
2022/06/13 09:39:59;;;;;;;10.73;3.77;;;;;;;20.61;70.50;99697.13;5088766;23;20844;-54
2022/06/13 09:42:34;;;;;;;6.23;4.13;;;;;;;20.64;71.05;99707.47;5084633;22;20211;-52
2022/06/13 09:45:19;;;;;;;9.07;3.40;;;;;;;20.57;72.44;99714.84;5158660;23;20263;-71
2022/06/13 09:48:15;;;;;;;7.33;3.97;;;;;;;20.58;73.70;99700.28;5099627;23;20203;-71
2022/06/13 09:50:51;;;;;;;8.50;3.93;;;;;;;20.56;74.43;99707.81;5096449;23;20204;-72
2022/06/13 09:53:28;;;;;;;9.40;4.20;;;;;;;20.50;75.59;99692.47;5098226;23;21666;-71
2022/06/13 09:56:20;;;;;;;11.27;4.37;;;;;;;20.32;75.20;99681.69;5086626;23;22240;-70
2022/06/13 09:59:15;;;;;;;7.40;4.23;;;;;;;20.19;76.33;99680.78;5082115;23;20648;-71
2022/06/13 10:01:46;;;;;;;9.43;4.27;;;;;;;20.19;76.74;99672.69;5133814;23;20625;-70
2022/06/13 10:04:20;;;;;;;7.30;3.77;;;;;;;20.06;76.43;99675.53;5132332;23;24264;-75
2022/06/13 10:06:51;;;;;;;5.83;4.00;;;;;;;19.81;75.19;99667.53;5098980;23;20206;-70
2022/06/13 10:09:42;;;;;;;10.37;3.50;;;;;;;19.71;74.69;99659.94;5107228;23;20258;-71
2022/06/13 10:12:20;;;;;;;8.23;3.00;;;;;;;19.79;74.16;99659.66;5077483;23;20203;-71
2022/06/13 10:15:02;;;;;;;6.17;2.90;;;;;;;19.94;72.67;99661.16;5108115;23;20211;-68
2022/06/13 10:17:34;;;;;;;7.53;3.30;;;;;;;19.94;71.17;99661.16;5101075;23;23240;-72
2022/06/13 10:20:18;;;;;;;11.23;3.20;;;;;;;20.11;72.88;99659.50;5098749;23;20266;-71
2022/06/13 10:22:59;;;;;;;8.20;3.43;;;;;;;20.00;74.27;99650.28;5086987;23;20214;-72
2022/06/13 10:25:45;;;;;;;8.03;4.03;;;;;;;20.04;74.15;99656.03;5087838;23;20889;-72
2022/06/13 10:28:46;;;;;;;9.70;3.93;;;;;;;19.98;74.61;99641.56;5095239;23;20302;-72
2022/06/13 10:31:28;;;;;;;7.67;3.70;;;;;;;20.07;72.73;99636.69;5085066;23;21011;-70
2022/06/13 10:34:36;;;;;;;4.67;3.37;;;;;;;20.13;72.43;99638.47;5088380;23;23434;-69
2022/06/13 10:37:19;;;;;;;12.90;3.57;;;;;;;20.12;70.83;99644.94;5059287;23;20540;-72
2022/06/13 10:39:48;;;;;;;7.03;3.37;;;;;;;19.99;71.63;99627.03;5083114;23;20210;-72
2022/06/13 10:42:19;;;;;;;4.10;3.20;;;;;;;20.02;72.16;99620.34;5095536;23;20203;-74
2022/06/13 10:44:46;;;;;;;8.00;3.37;;;;;;;20.11;71.29;99613.59;5094299;23;20203;-74
2022/06/13 10:47:24;;;;;;;9.40;3.40;;;;;;;20.23;71.26;99605.53;5081122;23;20246;-75
2022/06/13 10:50:01;;;;;;;8.37;3.27;;;;;;;20.30;70.23;99617.06;5134128;23;20199;-72
2022/06/13 10:52:32;;;;;;;9.70;2.90;;;;;;;20.23;69.49;99613.63;5085872;23;21579;-70
2022/06/13 10:55:10;;;;;;;5.93;3.03;;;;;;;20.39;69.02;99622.97;5097308;23;26923;-69
2022/06/13 10:57:43;;;;;;;7.20;3.13;;;;;;;20.55;68.33;99625.00;5091366;23;20663;-74
2022/06/13 11:00:12;;;;;;;4.27;2.70;;;;;;;20.63;68.12;99623.91;5112349;23;20403;-71
2022/06/13 11:02:39;;;;;;;10.83;2.87;;;;;;;20.59;67.66;99614.63;5060646;23;22451;-71
2022/06/13 11:05:09;;;;;;;11.87;3.40;;;;;;;20.77;68.49;99613.72;5068081;23;22074;-70
2022/06/13 11:07:44;;;;;;;7.10;3.00;;;;;;;20.77;67.43;99617.25;5081770;23;20668;-72
2022/06/13 11:10:20;;;;;;;8.23;2.93;;;;;;;20.72;67.25;99614.41;5085930;23;20559;-73
2022/06/13 11:12:51;;;;;;;4.17;2.77;;;;;;;20.65;66.35;99602.88;5056499;23;20445;-71
2022/06/13 11:24:41;;;;;;;5.70;2.43;;;;;;;20.52;66.52;99589.53;5081957;23;20265;-70
2022/06/13 11:27:39;;;;;;;6.07;2.90;;;;;;;20.33;66.84;99588.78;5087502;23;20676;-71
2022/06/13 11:30:27;;;;;;;7.77;2.90;;;;;;;20.32;66.99;99576.28;5078587;23;20270;-71
2022/06/13 11:33:06;;;;;;;11.07;3.20;;;;;;;20.35;67.10;99573.97;5084186;23;22427;-71
2022/06/13 11:35:40;;;;;;;10.10;3.80;;;;;;;20.39;67.29;99571.63;5072205;23;20281;-73
2022/06/13 11:38:26;;;;;;;9.50;3.10;;;;;;;20.54;66.32;99584.72;5086600;23;23230;-70
2022/06/13 11:41:11;;;;;;;7.80;2.73;;;;;;;20.70;66.52;99573.28;5106251;23;22113;-71
2022/06/13 11:44:07;;;;;;;10.80;3.77;;;;;;;20.84;66.05;99574.69;5069917;23;20200;-68
2022/06/13 11:46:46;;;;;;;5.60;3.37;;;;;;;20.83;66.25;99581.16;5103539;23;22035;-72
2022/06/13 11:49:16;;;;;;;9.40;3.13;;;;;;;20.76;66.01;99580.44;5076292;23;21780;-71
2022/06/13 11:51:53;;;;;;;7.47;3.33;;;;;;;20.62;66.54;99573.59;5076998;23;20212;-70
2022/06/13 11:54:26;;;;;;;21.20;5.30;;;;;;;20.50;68.13;99587.03;5064313;23;20211;-75
2022/06/13 11:57:14;;;;;;;9.50;3.33;;;;;;;20.38;70.32;99589.72;5075242;23;20346;-51
2022/06/13 11:59:44;;;;;;;10.70;4.00;;;;;;;20.14;70.16;99594.22;5095819;23;20202;-48
2022/06/13 12:02:18;;;;;;;4.67;3.23;;;;;;;19.94;71.37;99613.34;5074639;23;20589;-50
2022/06/13 12:04:46;;;;;;;13.73;3.27;;;;;;;19.68;70.92;99608.25;5069274;23;20312;-50
2022/06/13 12:07:31;;;;;;;8.07;3.07;;;;;;;19.52;71.10;99610.47;5106271;23;23829;-70
2022/06/13 12:10:00;;;;;;;7.80;2.90;;;;;;;19.26;73.49;99619.66;5078668;23;21540;-70
2022/06/13 12:12:42;;;;;;;5.33;2.80;;;;;;;18.85;76.28;99614.84;5126621;23;20211;-72
2022/06/13 12:15:10;;;;;;;5.93;3.27;;;;;;;18.70;79.52;99596.25;5122711;23;20236;-69
2022/06/13 12:17:40;;;;;;;5.40;3.50;;;;;;;18.50;82.17;99591.84;5106817;23;20433;-71
2022/06/13 12:20:15;;;;;;;5.87;3.40;;;;;;;18.19;84.75;99598.03;5191108;23;20209;-72
2022/06/13 12:22:57;;;;;;;10.03;3.93;;;;;;;17.86;88.43;99623.25;5098085;23;21208;-70